Terminal Aerodrome Forecast
Issued by NWS Grand Forks, ND

Home | Current Version | Previous Version | Graphics & Text | Print | Product List | Glossary On
Versions: 1 2 3 4 5 6 7 8 9 10 11 12 13 14 15 16 17 18 19 20
000
FTUS43 KFGF 251700
TAFFAR
TAF
KFAR 251720Z 2518/2618 31025G38KT 5SM -SN OVC025
     FM251900 32027G35KT P6SM BKN025
      TEMPO 2519/2522 32030G40KT 3SM BLSN
     FM252200 33022G28KT P6SM SCT035
     FM260200 33009KT P6SM BKN040
     FM261500 36012KT P6SM SCT050=

USA.gov is the U.S. government's official web portal to all federal, state and local government web resources and services.